Time;durP1;ratioP1;P1;durP2;ratioP2;P2;SDS_P1;SDS_P2;PMS_P1;PMS_P2;Temp;Humidity;BMP_temperature;BMP_pressure;BME280_temperature;BME280_humidity;BME280_pressure;Samples;Min_cycle;Max_cycle;Signal;HPM_P1;HPM_P2
2022/03/19 00:01:39;;;;;;;12.30;5.30;;;11.20;86.60;;;;;;6157291;23;20017;-84
2022/03/19 00:04:04;;;;;;;16.25;5.10;;;11.20;86.90;;;;;;6108136;23;20005;-84
2022/03/19 00:06:31;;;;;;;13.65;4.72;;;11.10;87.00;;;;;;6160378;23;20442;-84
2022/03/19 00:08:57;;;;;;;11.38;4.38;;;11.10;87.20;;;;;;6131240;23;20096;-84
2022/03/19 00:11:24;;;;;;;13.20;5.07;;;11.10;87.30;;;;;;6106303;23;20010;-84
2022/03/19 00:13:50;;;;;;;14.55;5.07;;;11.10;87.40;;;;;;6130801;23;20324;-84
2022/03/19 00:16:15;;;;;;;17.65;4.57;;;11.00;87.60;;;;;;6136123;23;20005;-84
2022/03/19 00:18:41;;;;;;;18.27;5.20;;;11.00;88.00;;;;;;6144352;23;20028;-84
2022/03/19 00:21:07;;;;;;;17.15;5.45;;;11.00;88.20;;;;;;6144953;23;20066;-84
2022/03/19 00:23:33;;;;;;;11.50;4.50;;;11.00;88.30;;;;;;6165584;23;20013;-84
2022/03/19 00:25:59;;;;;;;12.40;4.38;;;10.90;88.40;;;;;;6140086;23;20001;-84
2022/03/19 00:28:24;;;;;;;17.50;5.15;;;10.80;88.70;;;;;;6141635;23;20012;-84
2022/03/19 00:30:50;;;;;;;15.10;4.75;;;10.80;88.90;;;;;;6139608;23;20061;-84
2022/03/19 00:33:16;;;;;;;16.85;4.88;;;10.80;89.00;;;;;;6111616;23;20002;-84
2022/03/19 00:35:41;;;;;;;18.88;4.60;;;10.80;89.20;;;;;;6132385;23;20016;-83
2022/03/19 00:38:07;;;;;;;15.13;4.25;;;10.70;89.60;;;;;;6130916;23;20002;-84
2022/03/19 00:40:34;;;;;;;16.08;5.00;;;10.70;89.60;;;;;;6106150;23;20085;-83
2022/03/19 00:43:00;;;;;;;17.30;4.75;;;10.70;90.00;;;;;;6156428;23;20059;-84
2022/03/19 00:45:27;;;;;;;14.88;4.45;;;10.60;90.00;;;;;;6105725;23;20364;-84
2022/03/19 00:47:53;;;;;;;16.13;4.80;;;10.60;90.10;;;;;;6105358;23;20028;-84
2022/03/19 00:50:18;;;;;;;16.90;4.90;;;10.60;90.20;;;;;;6105169;23;20428;-84
2022/03/19 00:52:44;;;;;;;13.48;4.28;;;10.60;90.30;;;;;;6105925;23;20104;-84
2022/03/19 00:55:10;;;;;;;15.50;4.43;;;10.50;90.30;;;;;;6155745;23;20084;-84
2022/03/19 00:57:40;;;;;;;15.70;4.65;;;10.50;90.40;;;;;;6130013;23;20014;-83
2022/03/19 01:00:08;;;;;;;18.35;4.82;;;10.50;90.60;;;;;;6155540;23;20076;-88
2022/03/19 01:02:33;;;;;;;17.88;4.88;;;10.50;90.60;;;;;;6105823;23;20013;-84
2022/03/19 01:04:59;;;;;;;15.38;5.75;;;10.50;90.80;;;;;;6129964;23;20012;-83
2022/03/19 01:07:24;;;;;;;18.75;4.90;;;10.40;90.80;;;;;;6105067;23;20029;-84
2022/03/19 01:09:50;;;;;;;15.80;4.65;;;10.40;90.90;;;;;;6081860;23;20050;-84
2022/03/19 01:12:16;;;;;;;22.60;5.43;;;10.40;90.90;;;;;;6105254;23;20092;-85
2022/03/19 01:14:41;;;;;;;21.23;5.80;;;10.40;91.10;;;;;;6105433;23;20010;-84
2022/03/19 01:17:08;;;;;;;18.48;5.32;;;10.40;91.10;;;;;;6129844;23;20025;-83
2022/03/19 01:22:19;;;;;;;20.35;5.68;;;10.30;91.20;;;;;;6112647;23;20101;-83
2022/03/19 01:24:45;;;;;;;16.90;4.97;;;10.30;91.30;;;;;;6105236;23;20002;-84
2022/03/19 01:27:10;;;;;;;18.17;6.22;;;10.30;91.40;;;;;;6105501;23;20006;-84
2022/03/19 01:29:36;;;;;;;15.15;5.28;;;10.20;91.40;;;;;;6105693;23;20005;-84
2022/03/19 01:32:03;;;;;;;19.05;5.80;;;10.30;91.60;;;;;;6155721;23;20017;-84
2022/03/19 01:34:29;;;;;;;16.52;5.32;;;10.20;91.60;;;;;;6129437;23;20304;-84
2022/03/19 01:36:54;;;;;;;20.25;5.53;;;10.20;91.70;;;;;;6105461;23;20012;-84
2022/03/19 01:39:20;;;;;;;15.27;4.80;;;10.20;91.80;;;;;;6155751;23;20073;-84
2022/03/19 01:41:46;;;;;;;14.63;5.13;;;10.10;91.80;;;;;;6129748;23;20021;-84
2022/03/19 01:44:22;;;;;;;18.52;5.28;;;10.10;91.90;;;;;;6129538;23;20010;-86
2022/03/19 01:46:56;;;;;;;19.48;5.60;;;10.10;92.00;;;;;;6130016;23;20009;-85
2022/03/19 01:49:22;;;;;;;16.25;5.68;;;10.10;92.00;;;;;;6155074;23;20381;-84
2022/03/19 01:51:47;;;;;;;21.27;6.25;;;10.00;92.10;;;;;;6129905;23;20006;-84
2022/03/19 01:54:14;;;;;;;17.25;5.47;;;10.00;92.30;;;;;;6129521;23;20009;-85
2022/03/19 01:56:42;;;;;;;18.02;5.93;;;10.00;92.30;;;;;;6105161;23;20036;-84
2022/03/19 01:59:08;;;;;;;18.23;6.00;;;10.00;92.50;;;;;;6129648;23;20050;-84
2022/03/19 02:01:34;;;;;;;15.23;5.75;;;9.90;92.50;;;;;;6129325;23;20013;-84
2022/03/19 02:04:00;;;;;;;15.18;5.53;;;9.90;92.70;;;;;;6104962;23;20089;-84
2022/03/19 02:06:28;;;;;;;20.95;5.93;;;9.90;92.80;;;;;;6081174;23;20420;-84
2022/03/19 02:08:54;;;;;;;17.65;5.75;;;9.90;92.90;;;;;;6129614;23;20089;-84
2022/03/19 02:11:20;;;;;;;18.38;6.53;;;9.80;93.00;;;;;;6105057;23;20005;-84
2022/03/19 02:13:46;;;;;;;21.65;5.70;;;9.80;93.10;;;;;;6105414;23;20006;-84
2022/03/19 02:16:12;;;;;;;18.80;6.25;;;9.80;93.20;;;;;;6105412;23;20036;-84
2022/03/19 02:18:38;;;;;;;17.50;6.05;;;9.80;93.20;;;;;;6104967;23;20310;-84
2022/03/19 02:21:04;;;;;;;15.93;6.85;;;9.80;93.40;;;;;;6105032;23;20048;-84
2022/03/19 02:26:13;;;;;;;22.90;6.53;;;9.70;93.50;;;;;;6133164;23;20332;-83
2022/03/19 02:28:39;;;;;;;18.55;6.30;;;9.70;93.60;;;;;;6104961;23;20001;-84
2022/03/19 02:31:05;;;;;;;17.98;5.97;;;9.70;93.70;;;;;;6104890;23;20013;-85
2022/03/19 02:33:30;;;;;;;20.77;6.18;;;9.70;93.80;;;;;;6128886;23;20002;-83
2022/03/19 02:35:56;;;;;;;17.20;5.63;;;9.70;93.90;;;;;;6104692;23;20096;-84
2022/03/19 02:38:22;;;;;;;18.90;6.28;;;9.70;93.90;;;;;;6104566;23;20328;-84
2022/03/19 02:40:49;;;;;;;20.40;6.25;;;9.70;94.00;;;;;;6104832;23;20061;-85
2022/03/19 02:43:14;;;;;;;15.32;5.43;;;9.60;94.00;;;;;;6104546;23;20105;-83
2022/03/19 02:45:40;;;;;;;18.90;5.60;;;9.60;94.00;;;;;;6104959;23;20033;-84
2022/03/19 02:48:06;;;;;;;19.55;5.72;;;9.60;94.20;;;;;;6105028;23;20025;-84
2022/03/19 02:50:35;;;;;;;20.67;6.22;;;9.50;94.20;;;;;;6105010;23;20013;-83
2022/03/19 02:53:05;;;;;;;21.50;6.55;;;9.50;94.30;;;;;;6136146;23;19997;-84
2022/03/19 02:55:33;;;;;;;20.05;6.40;;;9.50;94.40;;;;;;6135823;23;20002;-83
2022/03/19 02:58:00;;;;;;;18.73;6.40;;;9.50;94.50;;;;;;6129727;23;20037;-84
2022/03/19 03:00:26;;;;;;;21.52;5.85;;;9.50;94.60;;;;;;6157062;23;20037;-84
2022/03/19 03:02:52;;;;;;;16.42;5.75;;;9.40;94.60;;;;;;6131286;23;20017;-84
2022/03/19 03:05:17;;;;;;;19.17;6.22;;;9.40;94.60;;;;;;6157313;23;20006;-84
2022/03/19 03:07:43;;;;;;;15.38;6.35;;;9.40;94.60;;;;;;6111761;23;20013;-84
2022/03/19 03:10:09;;;;;;;17.08;6.07;;;9.40;94.60;;;;;;6160490;23;20005;-82
2022/03/19 03:12:36;;;;;;;19.88;6.85;;;9.30;94.70;;;;;;6160486;23;20005;-84
2022/03/19 03:15:02;;;;;;;13.70;6.05;;;9.30;94.70;;;;;;6160358;23;20013;-84
2022/03/19 03:17:28;;;;;;;20.13;6.05;;;9.30;94.90;;;;;;6160427;23;20004;-84
2022/03/19 03:19:54;;;;;;;22.60;7.07;;;9.30;95.00;;;;;;6160099;23;20001;-84
2022/03/19 03:22:20;;;;;;;16.40;5.88;;;9.20;95.10;;;;;;6161767;23;20001;-85
2022/03/19 03:24:45;;;;;;;27.42;7.72;;;9.20;95.10;;;;;;6163619;23;20486;-84
2022/03/19 03:27:11;;;;;;;22.20;6.13;;;9.20;95.20;;;;;;6167991;23;20123;-84
2022/03/19 03:29:36;;;;;;;18.77;6.43;;;9.20;95.20;;;;;;6160529;23;20016;-85
2022/03/19 03:32:02;;;;;;;19.00;6.22;;;9.20;95.20;;;;;;6145267;23;20005;-83
2022/03/19 03:34:28;;;;;;;16.35;6.35;;;9.20;95.20;;;;;;6166337;23;20012;-82
2022/03/19 03:36:54;;;;;;;16.98;5.70;;;9.10;95.20;;;;;;6141434;23;20084;-84
2022/03/19 03:39:20;;;;;;;19.17;6.40;;;9.10;95.40;;;;;;6160088;23;20088;-84
2022/03/19 03:41:47;;;;;;;16.30;5.78;;;9.10;95.50;;;;;;6160265;23;20017;-84
2022/03/19 03:44:13;;;;;;;20.10;5.57;;;9.10;95.50;;;;;;6160830;23;20008;-82
2022/03/19 03:46:39;;;;;;;13.38;5.32;;;9.00;95.50;;;;;;6135553;23;20009;-84
2022/03/19 03:49:05;;;;;;;21.30;8.15;;;9.00;95.70;;;;;;6159888;23;20005;-84
2022/03/19 03:51:31;;;;;;;19.30;6.13;;;9.00;95.90;;;;;;6160157;23;20060;-84
2022/03/19 03:53:57;;;;;;;21.52;6.05;;;8.90;95.80;;;;;;6135575;23;20442;-84
2022/03/19 03:56:22;;;;;;;18.55;6.03;;;8.90;95.80;;;;;;6160576;23;20005;-84
2022/03/19 03:58:48;;;;;;;18.88;5.90;;;8.90;96.00;;;;;;6141797;23;20079;-85
2022/03/19 04:01:15;;;;;;;22.85;7.10;;;8.90;96.10;;;;;;6149056;23;20017;-84
2022/03/19 04:03:41;;;;;;;19.92;7.22;;;8.90;96.20;;;;;;6201266;23;20084;-84
2022/03/19 04:06:07;;;;;;;24.73;6.68;;;8.80;96.20;;;;;;6196673;23;20001;-84
2022/03/19 04:08:32;;;;;;;20.90;6.72;;;8.80;96.20;;;;;;6168227;23;20041;-84
2022/03/19 04:10:58;;;;;;;18.27;6.57;;;8.80;96.40;;;;;;6198692;23;20029;-85
2022/03/19 04:13:24;;;;;;;16.25;6.20;;;8.80;96.50;;;;;;6114352;23;20030;-84
2022/03/19 04:15:50;;;;;;;20.77;6.97;;;8.70;96.50;;;;;;6135826;23;20117;-85
2022/03/19 04:18:16;;;;;;;16.67;7.13;;;8.80;96.70;;;;;;6159964;23;20001;-84
2022/03/19 04:20:41;;;;;;;25.38;7.00;;;8.70;96.80;;;;;;6159811;23;20017;-84
2022/03/19 04:23:07;;;;;;;19.17;7.18;;;8.70;96.80;;;;;;6159960;23;20012;-84
2022/03/19 04:25:33;;;;;;;15.98;7.38;;;8.70;96.80;;;;;;6159573;23;20007;-84
2022/03/19 04:27:59;;;;;;;17.23;6.22;;;8.70;96.90;;;;;;6186220;23;20005;-84
2022/03/19 04:30:26;;;;;;;20.50;7.13;;;8.70;97.10;;;;;;6135309;23;20005;-84
2022/03/19 04:32:54;;;;;;;19.45;7.45;;;8.70;97.30;;;;;;6159248;23;20017;-84
2022/03/19 04:38:08;;;;;;;19.05;7.38;;;8.60;97.30;;;;;;6163757;23;20031;-85
2022/03/19 04:40:34;;;;;;;25.83;8.13;;;8.60;97.40;;;;;;6159544;23;20036;-84
2022/03/19 04:43:00;;;;;;;15.90;6.55;;;8.60;97.40;;;;;;6160006;23;20012;-83
2022/03/19 04:45:26;;;;;;;17.65;6.53;;;8.60;97.40;;;;;;6134987;23;20005;-84
2022/03/19 04:47:53;;;;;;;18.90;7.35;;;8.50;97.50;;;;;;6134828;23;20005;-84
2022/03/19 04:50:19;;;;;;;19.05;7.47;;;8.50;97.60;;;;;;6185734;23;20076;-82
2022/03/19 04:52:45;;;;;;;26.10;7.70;;;8.50;97.70;;;;;;6134988;23;20088;-84
2022/03/19 04:55:11;;;;;;;17.98;7.80;;;8.50;97.80;;;;;;6185927;23;20012;-84
2022/03/19 04:57:37;;;;;;;21.02;7.85;;;8.50;97.90;;;;;;6185738;23;19997;-84
2022/03/19 05:00:05;;;;;;;16.20;6.43;;;8.40;98.00;;;;;;6159505;23;20001;-83
2022/03/19 05:02:31;;;;;;;20.88;7.25;;;8.40;98.10;;;;;;6158875;23;20036;-83
2022/03/19 05:04:57;;;;;;;21.88;7.53;;;8.50;98.20;;;;;;6159379;23;20008;-84
2022/03/19 05:07:24;;;;;;;20.73;7.60;;;8.40;98.10;;;;;;6159117;23;20012;-83
2022/03/19 05:12:39;;;;;;;19.55;7.50;;;8.40;98.20;;;;;;6185477;23;20016;-83
2022/03/19 05:15:06;;;;;;;16.30;6.85;;;8.40;98.30;;;;;;6159414;23;20008;-84
2022/03/19 05:17:32;;;;;;;21.42;7.80;;;8.40;98.30;;;;;;6134971;23;20016;-83
2022/03/19 05:19:58;;;;;;;22.92;7.40;;;8.30;98.40;;;;;;6134640;23;20006;-83
2022/03/19 05:22:24;;;;;;;13.38;6.63;;;8.30;98.40;;;;;;6159159;23;20005;-83
2022/03/19 05:24:50;;;;;;;20.70;7.88;;;8.40;98.40;;;;;;6185531;23;20434;-84
2022/03/19 05:27:16;;;;;;;17.33;7.18;;;8.30;98.50;;;;;;6185809;23;20012;-83
2022/03/19 05:29:42;;;;;;;20.17;7.63;;;8.30;98.50;;;;;;6159310;23;20132;-84
2022/03/19 05:32:08;;;;;;;17.48;7.53;;;8.30;98.60;;;;;;6159386;23;20433;-83
2022/03/19 05:34:34;;;;;;;21.33;7.45;;;8.20;98.70;;;;;;6134560;23;20012;-84
2022/03/19 05:37:02;;;;;;;19.42;7.40;;;8.20;98.70;;;;;;6134462;23;20009;-84
2022/03/19 05:39:28;;;;;;;15.80;6.85;;;8.20;98.70;;;;;;6159104;23;20040;-84
2022/03/19 05:41:55;;;;;;;16.35;7.40;;;8.10;98.90;;;;;;6185198;23;20009;-84
2022/03/19 05:44:20;;;;;;;16.77;7.63;;;8.20;98.90;;;;;;6185625;23;20443;-84
2022/03/19 05:46:47;;;;;;;18.17;6.82;;;8.10;98.90;;;;;;6134368;23;20005;-84
2022/03/19 05:49:13;;;;;;;19.02;7.53;;;8.10;98.90;;;;;;6159003;23;20001;-83
2022/03/19 05:51:39;;;;;;;22.05;7.40;;;8.10;98.90;;;;;;6134877;23;20469;-83
2022/03/19 05:54:05;;;;;;;17.15;6.88;;;8.00;98.90;;;;;;6158814;23;20423;-84
2022/03/19 05:56:31;;;;;;;14.82;6.72;;;8.00;98.90;;;;;;6159043;23;20001;-84
2022/03/19 05:58:57;;;;;;;18.35;6.90;;;8.00;99.00;;;;;;6159208;23;20008;-84
2022/03/19 06:01:26;;;;;;;19.90;7.60;;;8.00;98.90;;;;;;6159112;23;20009;-84
2022/03/19 06:03:56;;;;;;;22.27;7.85;;;7.90;98.80;;;;;;6159634;23;20009;-84
2022/03/19 06:06:22;;;;;;;18.80;6.97;;;7.90;98.90;;;;;;6185256;23;20001;-83
2022/03/19 06:08:47;;;;;;;15.27;6.68;;;7.90;98.90;;;;;;6133956;23;20024;-83
2022/03/19 06:11:13;;;;;;;19.08;7.57;;;7.90;99.00;;;;;;6159267;23;20013;-84
2022/03/19 06:13:39;;;;;;;27.58;7.57;;;7.80;99.00;;;;;;6159246;23;20086;-83
2022/03/19 06:16:05;;;;;;;14.13;6.20;;;7.90;99.00;;;;;;6159026;23;20006;-83
2022/03/19 06:18:31;;;;;;;23.67;7.05;;;7.80;99.00;;;;;;6134510;23;20005;-84
2022/03/19 06:20:56;;;;;;;13.55;6.18;;;7.80;99.20;;;;;;6158670;23;20009;-83
2022/03/19 06:23:23;;;;;;;13.75;5.95;;;7.80;98.90;;;;;;6136735;23;20021;-83
2022/03/19 06:25:49;;;;;;;18.00;6.63;;;7.80;99.00;;;;;;6137185;23;20001;-84
2022/03/19 06:28:15;;;;;;;20.38;6.50;;;7.80;99.00;;;;;;6159374;23;20005;-84
2022/03/19 06:30:41;;;;;;;14.23;5.82;;;7.80;99.00;;;;;;6134616;23;20009;-84
2022/03/19 06:33:07;;;;;;;19.77;6.72;;;7.80;98.90;;;;;;6158525;23;20047;-84
2022/03/19 06:38:24;;;;;;;17.98;6.22;;;7.80;98.80;;;;;;6187021;23;20012;-84
2022/03/19 06:40:49;;;;;;;13.23;7.05;;;7.70;98.70;;;;;;6136251;23;20091;-84
2022/03/19 06:43:15;;;;;;;16.00;5.78;;;7.70;98.80;;;;;;6160603;23;20450;-84
2022/03/19 06:45:41;;;;;;;20.83;6.20;;;7.70;98.80;;;;;;6136788;23;20092;-84
2022/03/19 06:48:06;;;;;;;15.63;5.85;;;7.70;98.80;;;;;;6189004;23;20039;-83
2022/03/19 06:50:32;;;;;;;16.63;5.53;;;7.70;98.70;;;;;;6164246;23;20024;-82
2022/03/19 06:52:58;;;;;;;16.38;5.60;;;7.70;98.70;;;;;;6187177;23;20005;-84
2022/03/19 06:55:24;;;;;;;17.67;6.35;;;7.70;98.70;;;;;;6136312;23;20012;-84
2022/03/19 06:57:49;;;;;;;18.08;5.80;;;7.70;98.70;;;;;;6162771;23;20011;-84
2022/03/19 07:00:16;;;;;;;17.92;5.65;;;7.70;98.70;;;;;;6161103;23;20023;-84
2022/03/19 07:02:52;;;;;;;15.88;5.93;;;7.80;98.60;;;;;;6187022;23;20032;-84
2022/03/19 07:05:29;;;;;;;15.52;5.75;;;7.80;98.60;;;;;;6160775;23;20319;-84
2022/03/19 07:07:56;;;;;;;15.43;6.07;;;7.80;98.60;;;;;;6186652;23;20013;-84
2022/03/19 07:10:22;;;;;;;18.35;6.20;;;7.80;98.60;;;;;;6160673;23;20005;-84
2022/03/19 07:12:53;;;;;;;13.75;5.40;;;7.80;98.50;;;;;;6160371;23;20012;-84
2022/03/19 07:15:21;;;;;;;14.57;5.50;;;7.80;98.50;;;;;;6186622;23;20327;-83
2022/03/19 07:17:48;;;;;;;21.92;5.82;;;7.80;98.50;;;;;;6159524;23;20443;-84
2022/03/19 07:20:14;;;;;;;14.50;5.45;;;7.90;98.30;;;;;;6185307;23;20008;-84
2022/03/19 07:23:00;;;;;;;15.15;4.93;;;7.90;98.10;;;;;;6186885;23;20008;-84
2022/03/19 07:25:37;;;;;;;15.73;5.15;;;7.90;98.10;;;;;;6186295;23;20380;-84
2022/03/19 07:28:05;;;;;;;17.23;5.60;;;7.90;98.10;;;;;;6135427;23;20012;-84
2022/03/19 07:30:31;;;;;;;14.93;5.10;;;7.90;98.10;;;;;;6186812;23;20005;-84
2022/03/19 07:32:57;;;;;;;16.67;6.03;;;8.00;98.00;;;;;;6186229;23;20371;-84
2022/03/19 07:35:23;;;;;;;15.25;5.20;;;8.00;98.00;;;;;;6186739;23;20009;-84
2022/03/19 07:37:49;;;;;;;13.73;4.93;;;8.10;97.90;;;;;;6188114;23;20001;-84
2022/03/19 07:41:45;;;;;;;14.18;5.85;;;8.10;97.80;;;;;;6195362;23;20001;-84
2022/03/19 07:43:07;;;;;;;11.82;4.78;;;8.20;97.60;;;;;;6198220;23;20083;-84
2022/03/19 07:45:33;;;;;;;13.05;5.22;;;8.20;97.60;;;;;;6170175;23;19997;-83
2022/03/19 07:47:59;;;;;;;16.50;5.35;;;8.20;97.50;;;;;;6195424;23;20080;-84
2022/03/19 07:50:25;;;;;;;16.55;5.65;;;8.30;97.50;;;;;;6170816;23;20064;-84
2022/03/19 07:52:51;;;;;;;13.13;5.18;;;8.30;97.40;;;;;;6168509;23;20371;-85
2022/03/19 07:55:17;;;;;;;13.48;5.00;;;8.30;97.40;;;;;;6140664;23;20009;-85
2022/03/19 07:57:43;;;;;;;14.70;5.28;;;8.40;97.40;;;;;;6162100;23;20143;-83
2022/03/19 08:00:09;;;;;;;15.23;5.20;;;8.40;97.40;;;;;;6161159;23;20001;-84
2022/03/19 08:02:35;;;;;;;16.77;5.25;;;8.50;97.40;;;;;;6135552;23;20444;-84
2022/03/19 08:05:03;;;;;;;13.75;5.50;;;8.60;97.10;;;;;;6160396;23;20056;-84
2022/03/19 08:07:29;;;;;;;13.98;5.32;;;8.60;97.00;;;;;;6135772;23;20005;-84
2022/03/19 08:09:55;;;;;;;14.75;5.40;;;8.60;97.00;;;;;;6160298;23;20048;-84
2022/03/19 08:12:21;;;;;;;18.63;5.03;;;8.70;96.90;;;;;;6160204;23;20431;-84
2022/03/19 08:14:47;;;;;;;9.80;4.82;;;8.70;96.80;;;;;;6160165;23;20076;-84
2022/03/19 08:17:14;;;;;;;13.70;5.57;;;8.80;96.80;;;;;;6159612;23;20001;-85
2022/03/19 08:19:41;;;;;;;15.75;5.30;;;8.80;96.80;;;;;;6135439;23;20012;-84
2022/03/19 08:22:08;;;;;;;15.15;5.55;;;8.90;96.60;;;;;;6135739;23;20017;-85
2022/03/19 08:24:34;;;;;;;14.30;5.20;;;9.00;96.70;;;;;;6135768;23;20068;-84
2022/03/19 08:27:01;;;;;;;14.85;4.47;;;9.00;96.20;;;;;;6111061;23;20005;-86
2022/03/19 08:29:27;;;;;;;11.75;4.70;;;9.10;95.60;;;;;;6160202;23;20005;-84
2022/03/19 08:31:53;;;;;;;13.07;4.78;;;9.20;95.60;;;;;;6111172;23;20372;-85
2022/03/19 08:34:20;;;;;;;12.93;5.22;;;9.20;95.50;;;;;;6135240;23;20063;-85
2022/03/19 08:36:45;;;;;;;13.18;4.90;;;9.30;95.50;;;;;;6186288;23;20004;-84
2022/03/19 08:41:55;;;;;;;17.70;5.40;;;9.40;95.00;;;;;;6163989;23;20024;-84
2022/03/19 08:44:21;;;;;;;14.52;4.43;;;9.50;94.60;;;;;;6159769;23;20009;-84
2022/03/19 08:46:47;;;;;;;15.70;4.35;;;9.60;94.30;;;;;;6137260;23;20012;-84
2022/03/19 08:49:13;;;;;;;10.40;4.00;;;9.60;94.40;;;;;;6134968;23;20001;-84
2022/03/19 08:51:41;;;;;;;16.52;4.70;;;9.70;94.40;;;;;;6134940;23;20013;-84
2022/03/19 08:54:16;;;;;;;13.63;3.90;;;9.80;94.40;;;;;;6135569;23;20320;-85
2022/03/19 08:56:48;;;;;;;15.25;5.05;;;9.90;93.70;;;;;;6184365;23;20135;-85
2022/03/19 08:59:19;;;;;;;9.82;4.07;;;10.00;93.60;;;;;;6160031;23;20005;-84
2022/03/19 09:01:47;;;;;;;11.48;4.20;;;10.00;93.50;;;;;;6136257;23;20009;-85
2022/03/19 09:04:13;;;;;;;11.68;3.70;;;10.20;93.50;;;;;;6185784;23;19997;-85
2022/03/19 09:06:39;;;;;;;10.45;3.60;;;10.20;92.60;;;;;;6185850;23;20056;-85
2022/03/19 09:09:05;;;;;;;12.93;4.18;;;10.30;91.70;;;;;;6185806;23;20048;-86
2022/03/19 09:11:33;;;;;;;8.77;3.35;;;10.40;91.60;;;;;;6159243;23;20005;-85
2022/03/19 09:14:00;;;;;;;14.48;3.63;;;10.50;91.70;;;;;;6159283;23;20001;-85
2022/03/19 09:16:26;;;;;;;11.63;4.43;;;10.60;91.60;;;;;;6158925;23;20001;-84
2022/03/19 09:18:53;;;;;;;10.23;3.63;;;10.70;91.10;;;;;;6159194;23;20056;-84
2022/03/19 09:21:19;;;;;;;11.88;3.80;;;10.80;90.60;;;;;;6134248;23;20100;-84
2022/03/19 09:23:45;;;;;;;10.48;3.50;;;10.90;90.40;;;;;;6185400;23;20000;-84
2022/03/19 09:26:12;;;;;;;10.27;3.55;;;11.00;90.00;;;;;;6185206;23;20008;-87
2022/03/19 09:28:39;;;;;;;10.88;4.10;;;11.10;87.00;;;;;;6159097;23;20446;-85
2022/03/19 09:31:04;;;;;;;12.93;3.50;;;11.20;87.90;;;;;;6159132;23;20028;-85
2022/03/19 09:33:30;;;;;;;12.10;3.25;;;11.30;87.30;;;;;;6134604;23;20404;-85
2022/03/19 09:35:57;;;;;;;8.55;3.00;;;11.40;87.30;;;;;;6159101;23;20007;-85
2022/03/19 09:38:23;;;;;;;10.40;3.13;;;11.50;86.60;;;;;;6185617;23;20013;-84
2022/03/19 09:40:49;;;;;;;11.80;2.80;;;11.60;84.80;;;;;;6185628;23;20009;-85
2022/03/19 09:43:15;;;;;;;7.85;2.90;;;11.80;81.90;;;;;;6157774;23;20028;-84
2022/03/19 09:45:41;;;;;;;10.35;3.03;;;11.90;80.90;;;;;;6185396;23;20002;-86
2022/03/19 09:48:07;;;;;;;8.02;2.72;;;12.00;80.30;;;;;;6185697;23;20001;-85
2022/03/19 09:50:36;;;;;;;10.57;3.13;;;12.00;80.80;;;;;;6159218;23;20084;-85
2022/03/19 09:53:04;;;;;;;9.73;2.42;;;12.20;79.00;;;;;;6135138;23;20016;-85
2022/03/19 09:55:30;;;;;;;11.73;2.90;;;12.20;76.00;;;;;;6158788;23;20447;-86
2022/03/19 09:57:57;;;;;;;9.43;2.75;;;12.30;76.00;;;;;;6159091;23;20011;-84
2022/03/19 10:00:24;;;;;;;7.55;2.20;;;12.40;72.80;;;;;;6158666;23;20020;-85
2022/03/19 10:02:57;;;;;;;8.57;2.75;;;12.50;72.20;;;;;;6185049;23;20486;-84
2022/03/19 10:10:56;;;;;;;8.40;2.45;;;12.80;70.00;;;;;;6134795;23;20400;-86
2022/03/19 10:13:23;;;;;;;7.88;2.22;;;12.90;70.00;;;;;;6158163;23;20054;-84
2022/03/19 10:15:49;;;;;;;5.78;2.08;;;13.00;67.60;;;;;;6157545;23;19998;-84
2022/03/19 10:18:14;;;;;;;9.27;2.67;;;13.10;66.30;;;;;;6105800;23;20073;-84
2022/03/19 10:20:42;;;;;;;7.90;2.83;;;13.20;65.50;;;;;;6158370;23;20005;-83
2022/03/19 10:23:08;;;;;;;9.75;2.97;;;13.30;66.90;;;;;;6111383;23;20040;-82
2022/03/19 10:25:33;;;;;;;7.80;3.00;;;13.40;66.30;;;;;;6105687;23;20080;-84
2022/03/19 10:28:08;;;;;;;12.25;3.30;;;13.40;65.90;;;;;;6129596;23;20433;-85
2022/03/19 10:30:39;;;;;;;9.45;2.80;;;13.50;63.60;;;;;;6105310;23;20018;-83
2022/03/19 10:33:08;;;;;;;7.30;2.45;;;13.60;64.80;;;;;;6129408;23;19998;-84
2022/03/19 10:35:35;;;;;;;8.73;2.67;;;13.70;64.80;;;;;;6155276;23;19997;-84
2022/03/19 10:38:22;;;;;;;9.40;2.78;;;13.80;63.70;;;;;;6155557;23;20040;-84
2022/03/19 10:40:51;;;;;;;7.60;2.30;;;13.90;62.80;;;;;;6155471;23;20006;-84
2022/03/19 10:43:18;;;;;;;6.22;2.13;;;14.00;60.50;;;;;;6129081;23;20021;-85
2022/03/19 10:45:49;;;;;;;5.88;2.28;;;14.00;58.30;;;;;;6128918;23;20006;-84
2022/03/19 10:48:25;;;;;;;;;;;14.10;58.70;;;;;;6129805;23;20483;-84
2022/03/19 10:50:51;;;;;;;6.05;2.05;;;14.10;59.30;;;;;;6129453;23;19900;-83
2022/03/19 10:53:19;;;;;;;4.53;1.70;;;14.20;58.10;;;;;;6105028;23;20487;-84
2022/03/19 10:55:45;;;;;;;6.93;2.22;;;14.20;57.70;;;;;;6129763;23;20001;-84
2022/03/19 10:58:11;;;;;;;5.40;1.90;;;14.40;56.00;;;;;;6129333;23;20006;-83
2022/03/19 11:00:38;;;;;;;6.57;1.95;;;14.40;56.20;;;;;;6155171;23;20017;-83
2022/03/19 11:03:35;;;;;;;4.90;1.75;;;14.60;57.60;;;;;;6129589;23;20006;-83
2022/03/19 11:06:06;;;;;;;6.72;2.00;;;14.60;54.50;;;;;;6155075;23;20424;-83
2022/03/19 11:08:41;;;;;;;8.18;2.00;;;14.70;54.20;;;;;;6128881;23;20478;-83
2022/03/19 11:11:18;;;;;;;7.88;2.40;;;14.80;56.00;;;;;;6155739;23;20001;-83
2022/03/19 11:13:46;;;;;;;4.93;2.40;;;14.90;54.80;;;;;;6104878;23;20013;-84
2022/03/19 11:16:12;;;;;;;6.82;2.13;;;15.00;54.30;;;;;;6129503;23;20006;-83
2022/03/19 11:18:40;;;;;;;6.45;2.05;;;15.10;54.20;;;;;;6131694;23;20005;-84
2022/03/19 11:21:08;;;;;;;7.63;1.92;;;15.20;54.20;;;;;;6167550;23;20005;-84
2022/03/19 11:23:55;;;;;;;7.72;2.55;;;15.30;54.50;;;;;;6146854;23;20001;-83
2022/03/19 11:26:28;;;;;;;7.05;2.50;;;15.40;51.90;;;;;;6175516;23;20312;-84
2022/03/19 11:28:55;;;;;;;7.55;2.10;;;15.40;52.80;;;;;;6142001;23;20076;-83
2022/03/19 11:31:27;;;;;;;6.03;2.67;;;15.50;52.60;;;;;;6167733;23;20001;-84
2022/03/19 11:34:12;;;;;;;4.70;1.92;;;15.50;50.80;;;;;;6141519;23;20156;-84
2022/03/19 11:36:58;;;;;;;8.57;2.40;;;15.60;50.40;;;;;;6160796;23;20004;-84
2022/03/19 11:39:24;;;;;;;6.43;1.92;;;15.60;49.50;;;;;;6130617;23;20306;-86
2022/03/19 11:41:51;;;;;;;5.22;1.92;;;15.70;49.40;;;;;;6130409;23;20009;-85
2022/03/19 11:44:25;;;;;;;3.90;1.70;;;15.70;49.90;;;;;;6106385;23;20012;-84
2022/03/19 11:47:00;;;;;;;4.00;1.55;;;15.90;50.80;;;;;;6131046;23;20317;-83
2022/03/19 11:49:48;;;;;;;5.82;1.88;;;15.90;48.80;;;;;;6130179;23;20424;-84
2022/03/19 11:52:37;;;;;;;5.90;1.70;;;16.10;48.10;;;;;;6130957;23;20005;-83
2022/03/19 11:55:03;;;;;;;5.85;1.83;;;16.10;47.50;;;;;;6130405;23;20072;-84
2022/03/19 11:57:59;;;;;;;5.13;2.05;;;16.20;48.70;;;;;;6130331;23;20005;-85
2022/03/19 12:00:29;;;;;;;4.65;1.58;;;16.30;47.70;;;;;;6156554;23;20001;-84
2022/03/19 12:03:12;;;;;;;7.50;1.70;;;16.40;48.30;;;;;;6106410;23;20005;-84
2022/03/19 12:05:41;;;;;;;6.28;1.73;;;16.50;47.70;;;;;;6156063;23;20092;-85
2022/03/19 12:08:17;;;;;;;5.53;1.67;;;16.50;45.50;;;;;;6130212;23;20060;-84
2022/03/19 12:10:54;;;;;;;5.88;1.73;;;16.60;45.20;;;;;;6130217;23;20052;-84
2022/03/19 12:13:29;;;;;;;4.43;1.50;;;16.60;43.80;;;;;;6157095;23;20005;-84
2022/03/19 12:15:54;;;;;;;7.10;2.13;;;16.70;44.60;;;;;;6130223;23;20433;-85
2022/03/19 12:18:34;;;;;;;4.28;1.65;;;16.70;44.20;;;;;;6129900;23;20028;-84
2022/03/19 12:21:13;;;;;;;5.90;1.65;;;16.70;44.00;;;;;;6132744;23;20016;-83
2022/03/19 12:23:51;;;;;;;6.55;1.60;;;16.70;44.30;;;;;;6107962;23;20009;-83
2022/03/19 12:26:20;;;;;;;5.80;1.40;;;16.80;44.60;;;;;;6156804;23;20001;-83
2022/03/19 12:28:56;;;;;;;5.55;1.40;;;16.80;44.50;;;;;;6130394;23;20001;-84
2022/03/19 12:31:29;;;;;;;4.97;1.52;;;16.90;45.20;;;;;;6156167;23;20012;-84
2022/03/19 12:33:55;;;;;;;3.17;1.27;;;17.00;44.80;;;;;;6106617;23;20333;-83
2022/03/19 12:36:23;;;;;;;4.63;1.50;;;17.00;44.00;;;;;;6130625;23;20012;-85
2022/03/19 12:38:50;;;;;;;6.93;1.60;;;17.10;44.20;;;;;;6130966;23;20009;-84
2022/03/19 12:41:24;;;;;;;5.53;1.20;;;17.10;44.20;;;;;;6130833;23;20053;-84
2022/03/19 12:43:51;;;;;;;5.22;1.65;;;17.20;45.50;;;;;;6130252;23;20443;-85
2022/03/19 12:46:24;;;;;;;4.93;1.52;;;17.30;45.60;;;;;;6106345;23;20006;-85
2022/03/19 12:48:50;;;;;;;3.92;1.33;;;17.40;44.40;;;;;;6156510;23;20005;-87
2022/03/19 12:51:26;;;;;;;7.35;1.90;;;17.50;45.40;;;;;;6106533;23;20305;-83
2022/03/19 12:53:53;;;;;;;6.55;1.77;;;17.50;44.70;;;;;;6106442;23;20394;-84
2022/03/19 12:56:21;;;;;;;4.75;1.63;;;17.60;42.30;;;;;;6130426;23;20037;-84
2022/03/19 12:58:51;;;;;;;7.63;2.00;;;17.60;42.50;;;;;;6156273;23;20439;-84
2022/03/19 13:01:19;;;;;;;6.57;2.03;;;17.60;42.70;;;;;;6129940;23;20365;-84
2022/03/19 13:03:45;;;;;;;4.80;1.52;;;17.60;43.00;;;;;;6156019;23;19998;-84
2022/03/19 13:06:14;;;;;;;7.32;1.77;;;17.60;43.00;;;;;;6130170;23;20009;-83
2022/03/19 13:08:48;;;;;;;5.75;1.85;;;17.70;43.10;;;;;;6129454;23;20045;-85
2022/03/19 13:11:17;;;;;;;5.22;1.70;;;17.70;44.30;;;;;;6129916;23;20439;-85